sensor_id;sensor_type;location;lat;lon;timestamp;P1;durP1;ratioP1;P2;durP2;ratioP2
3771;SDS011;1901;48.172;12.824;2023-05-29T00:01:23;8.90;;;6.30;;
3771;SDS011;1901;48.172;12.824;2023-05-29T00:03:50;9.27;;;7.33;;
3771;SDS011;1901;48.172;12.824;2023-05-29T00:06:17;7.40;;;6.00;;
3771;SDS011;1901;48.172;12.824;2023-05-29T00:08:44;15.00;;;7.00;;
3771;SDS011;1901;48.172;12.824;2023-05-29T00:11:12;11.73;;;6.60;;
3771;SDS011;1901;48.172;12.824;2023-05-29T00:13:39;10.40;;;6.47;;
3771;SDS011;1901;48.172;12.824;2023-05-29T00:16:08;10.37;;;6.93;;
3771;SDS011;1901;48.172;12.824;2023-05-29T00:18:35;8.83;;;6.00;;
3771;SDS011;1901;48.172;12.824;2023-05-29T00:21:09;10.43;;;6.57;;
3771;SDS011;1901;48.172;12.824;2023-05-29T00:23:36;8.20;;;5.93;;
3771;SDS011;1901;48.172;12.824;2023-05-29T00:26:04;11.67;;;6.13;;
3771;SDS011;1901;48.172;12.824;2023-05-29T00:28:31;12.27;;;6.37;;
3771;SDS011;1901;48.172;12.824;2023-05-29T00:30:58;11.43;;;7.53;;
3771;SDS011;1901;48.172;12.824;2023-05-29T00:33:27;8.93;;;6.00;;
3771;SDS011;1901;48.172;12.824;2023-05-29T00:35:54;10.20;;;6.63;;
3771;SDS011;1901;48.172;12.824;2023-05-29T00:38:21;8.93;;;7.10;;
3771;SDS011;1901;48.172;12.824;2023-05-29T00:40:48;11.80;;;6.00;;
3771;SDS011;1901;48.172;12.824;2023-05-29T00:43:15;12.33;;;7.23;;
3771;SDS011;1901;48.172;12.824;2023-05-29T00:45:42;10.93;;;6.53;;
3771;SDS011;1901;48.172;12.824;2023-05-29T00:48:09;10.30;;;7.77;;
3771;SDS011;1901;48.172;12.824;2023-05-29T00:50:38;12.67;;;7.60;;
3771;SDS011;1901;48.172;12.824;2023-05-29T00:53:05;9.03;;;7.03;;
3771;SDS011;1901;48.172;12.824;2023-05-29T00:55:33;9.50;;;6.23;;
3771;SDS011;1901;48.172;12.824;2023-05-29T00:58:00;8.63;;;7.30;;
3771;SDS011;1901;48.172;12.824;2023-05-29T01:00:27;8.70;;;6.70;;
3771;SDS011;1901;48.172;12.824;2023-05-29T01:02:55;9.90;;;7.57;;
3771;SDS011;1901;48.172;12.824;2023-05-29T01:05:23;8.57;;;6.30;;
3771;SDS011;1901;48.172;12.824;2023-05-29T01:07:52;11.23;;;7.07;;
3771;SDS011;1901;48.172;12.824;2023-05-29T01:10:19;9.47;;;6.30;;
3771;SDS011;1901;48.172;12.824;2023-05-29T01:12:47;16.63;;;6.00;;
3771;SDS011;1901;48.172;12.824;2023-05-29T01:15:21;8.73;;;7.00;;
3771;SDS011;1901;48.172;12.824;2023-05-29T01:17:52;11.60;;;7.10;;
3771;SDS011;1901;48.172;12.824;2023-05-29T01:20:27;11.60;;;6.90;;
3771;SDS011;1901;48.172;12.824;2023-05-29T01:25:58;9.03;;;5.83;;
3771;SDS011;1901;48.172;12.824;2023-05-29T01:28:32;10.37;;;6.73;;
3771;SDS011;1901;48.172;12.824;2023-05-29T01:31:00;10.03;;;6.43;;
3771;SDS011;1901;48.172;12.824;2023-05-29T01:33:27;9.83;;;6.20;;
3771;SDS011;1901;48.172;12.824;2023-05-29T01:35:54;12.80;;;6.30;;
3771;SDS011;1901;48.172;12.824;2023-05-29T01:38:21;11.00;;;7.40;;
3771;SDS011;1901;48.172;12.824;2023-05-29T01:40:48;16.60;;;7.80;;
3771;SDS011;1901;48.172;12.824;2023-05-29T01:43:16;8.93;;;6.00;;
3771;SDS011;1901;48.172;12.824;2023-05-29T01:45:44;10.90;;;7.23;;
3771;SDS011;1901;48.172;12.824;2023-05-29T01:48:11;10.10;;;6.40;;
3771;SDS011;1901;48.172;12.824;2023-05-29T01:50:39;9.90;;;5.93;;
3771;SDS011;1901;48.172;12.824;2023-05-29T01:53:08;9.10;;;6.03;;
3771;SDS011;1901;48.172;12.824;2023-05-29T01:55:36;11.80;;;5.87;;
3771;SDS011;1901;48.172;12.824;2023-05-29T01:58:03;12.00;;;7.23;;
3771;SDS011;1901;48.172;12.824;2023-05-29T02:00:30;12.60;;;7.00;;
3771;SDS011;1901;48.172;12.824;2023-05-29T02:02:59;8.80;;;6.70;;
3771;SDS011;1901;48.172;12.824;2023-05-29T02:05:27;7.37;;;6.10;;
3771;SDS011;1901;48.172;12.824;2023-05-29T02:07:54;11.73;;;7.47;;
3771;SDS011;1901;48.172;12.824;2023-05-29T02:10:21;12.63;;;5.97;;
3771;SDS011;1901;48.172;12.824;2023-05-29T02:12:48;12.20;;;6.90;;
3771;SDS011;1901;48.172;12.824;2023-05-29T02:15:15;11.70;;;7.43;;
3771;SDS011;1901;48.172;12.824;2023-05-29T02:17:42;12.20;;;6.37;;
3771;SDS011;1901;48.172;12.824;2023-05-29T02:20:11;10.10;;;6.07;;
3771;SDS011;1901;48.172;12.824;2023-05-29T02:22:38;10.93;;;6.90;;
3771;SDS011;1901;48.172;12.824;2023-05-29T02:25:06;9.03;;;6.40;;
3771;SDS011;1901;48.172;12.824;2023-05-29T02:27:33;11.30;;;6.73;;
3771;SDS011;1901;48.172;12.824;2023-05-29T02:30:00;15.53;;;7.30;;
3771;SDS011;1901;48.172;12.824;2023-05-29T02:32:27;14.30;;;7.80;;
3771;SDS011;1901;48.172;12.824;2023-05-29T02:34:54;8.10;;;6.07;;
3771;SDS011;1901;48.172;12.824;2023-05-29T02:37:23;18.53;;;7.40;;
3771;SDS011;1901;48.172;12.824;2023-05-29T02:39:51;8.90;;;6.53;;
3771;SDS011;1901;48.172;12.824;2023-05-29T02:42:18;12.43;;;6.90;;
3771;SDS011;1901;48.172;12.824;2023-05-29T02:44:45;11.20;;;7.20;;
3771;SDS011;1901;48.172;12.824;2023-05-29T02:47:12;9.17;;;7.00;;
3771;SDS011;1901;48.172;12.824;2023-05-29T02:49:39;9.07;;;6.33;;
3771;SDS011;1901;48.172;12.824;2023-05-29T02:52:07;10.53;;;6.60;;
3771;SDS011;1901;48.172;12.824;2023-05-29T02:54:36;14.97;;;7.13;;
3771;SDS011;1901;48.172;12.824;2023-05-29T02:57:03;10.50;;;6.93;;
3771;SDS011;1901;48.172;12.824;2023-05-29T02:59:30;9.80;;;6.33;;
3771;SDS011;1901;48.172;12.824;2023-05-29T03:01:58;9.80;;;6.80;;
3771;SDS011;1901;48.172;12.824;2023-05-29T03:04:25;8.30;;;6.20;;
3771;SDS011;1901;48.172;12.824;2023-05-29T03:06:52;8.63;;;6.27;;
3771;SDS011;1901;48.172;12.824;2023-05-29T03:09:20;10.50;;;6.90;;
3771;SDS011;1901;48.172;12.824;2023-05-29T03:11:49;10.90;;;7.00;;
3771;SDS011;1901;48.172;12.824;2023-05-29T03:14:17;11.93;;;6.87;;
3771;SDS011;1901;48.172;12.824;2023-05-29T03:16:46;9.10;;;5.77;;
3771;SDS011;1901;48.172;12.824;2023-05-29T03:19:14;8.97;;;6.70;;
3771;SDS011;1901;48.172;12.824;2023-05-29T03:21:41;12.30;;;6.80;;
3771;SDS011;1901;48.172;12.824;2023-05-29T03:24:08;8.83;;;5.77;;
3771;SDS011;1901;48.172;12.824;2023-05-29T03:26:36;11.03;;;7.07;;
3771;SDS011;1901;48.172;12.824;2023-05-29T03:29:04;11.20;;;6.30;;
3771;SDS011;1901;48.172;12.824;2023-05-29T03:31:32;11.00;;;6.93;;
3771;SDS011;1901;48.172;12.824;2023-05-29T03:34:00;11.90;;;6.73;;
3771;SDS011;1901;48.172;12.824;2023-05-29T03:36:27;10.33;;;6.00;;
3771;SDS011;1901;48.172;12.824;2023-05-29T03:38:54;11.03;;;7.03;;
3771;SDS011;1901;48.172;12.824;2023-05-29T03:41:21;10.13;;;6.23;;
3771;SDS011;1901;48.172;12.824;2023-05-29T03:43:48;10.60;;;6.23;;
3771;SDS011;1901;48.172;12.824;2023-05-29T03:46:17;10.83;;;6.67;;
3771;SDS011;1901;48.172;12.824;2023-05-29T03:48:44;9.13;;;5.90;;
3771;SDS011;1901;48.172;12.824;2023-05-29T03:51:11;8.40;;;6.37;;
3771;SDS011;1901;48.172;12.824;2023-05-29T03:53:38;9.07;;;6.30;;
3771;SDS011;1901;48.172;12.824;2023-05-29T03:56:05;15.60;;;6.70;;
3771;SDS011;1901;48.172;12.824;2023-05-29T03:58:32;8.80;;;6.50;;
3771;SDS011;1901;48.172;12.824;2023-05-29T04:01:01;13.63;;;6.20;;
3771;SDS011;1901;48.172;12.824;2023-05-29T04:03:30;10.33;;;6.17;;
3771;SDS011;1901;48.172;12.824;2023-05-29T04:05:57;9.90;;;5.83;;
3771;SDS011;1901;48.172;12.824;2023-05-29T04:08:25;6.57;;;5.70;;
3771;SDS011;1901;48.172;12.824;2023-05-29T04:10:52;14.63;;;6.40;;
3771;SDS011;1901;48.172;12.824;2023-05-29T04:13:19;15.17;;;13.57;;
3771;SDS011;1901;48.172;12.824;2023-05-29T04:15:46;8.47;;;7.37;;
3771;SDS011;1901;48.172;12.824;2023-05-29T04:18:13;7.23;;;6.47;;
3771;SDS011;1901;48.172;12.824;2023-05-29T04:20:42;12.20;;;7.10;;
3771;SDS011;1901;48.172;12.824;2023-05-29T04:23:12;6.93;;;5.67;;
3771;SDS011;1901;48.172;12.824;2023-05-29T04:25:39;10.63;;;6.10;;
3771;SDS011;1901;48.172;12.824;2023-05-29T04:28:06;10.30;;;6.00;;
3771;SDS011;1901;48.172;12.824;2023-05-29T04:30:35;6.10;;;4.87;;
3771;SDS011;1901;48.172;12.824;2023-05-29T04:33:04;17.20;;;7.30;;
3771;SDS011;1901;48.172;12.824;2023-05-29T04:35:31;9.30;;;5.23;;
3771;SDS011;1901;48.172;12.824;2023-05-29T04:37:59;10.40;;;5.57;;
3771;SDS011;1901;48.172;12.824;2023-05-29T04:40:26;9.53;;;6.50;;
3771;SDS011;1901;48.172;12.824;2023-05-29T04:42:53;8.57;;;5.73;;
3771;SDS011;1901;48.172;12.824;2023-05-29T04:45:21;6.87;;;6.17;;
3771;SDS011;1901;48.172;12.824;2023-05-29T04:47:48;8.80;;;6.20;;
3771;SDS011;1901;48.172;12.824;2023-05-29T04:50:18;7.10;;;5.50;;
3771;SDS011;1901;48.172;12.824;2023-05-29T04:52:45;7.13;;;5.07;;
3771;SDS011;1901;48.172;12.824;2023-05-29T04:55:14;11.07;;;6.37;;
3771;SDS011;1901;48.172;12.824;2023-05-29T04:57:41;6.27;;;4.83;;
3771;SDS011;1901;48.172;12.824;2023-05-29T05:00:08;10.37;;;5.70;;
3771;SDS011;1901;48.172;12.824;2023-05-29T05:02:39;10.23;;;5.50;;
3771;SDS011;1901;48.172;12.824;2023-05-29T05:05:06;11.03;;;6.10;;
3771;SDS011;1901;48.172;12.824;2023-05-29T05:07:34;6.40;;;5.70;;
3771;SDS011;1901;48.172;12.824;2023-05-29T05:10:01;5.83;;;5.20;;
3771;SDS011;1901;48.172;12.824;2023-05-29T05:12:29;6.97;;;5.40;;
3771;SDS011;1901;48.172;12.824;2023-05-29T05:14:56;8.20;;;6.10;;
3771;SDS011;1901;48.172;12.824;2023-05-29T05:17:23;9.80;;;6.50;;
3771;SDS011;1901;48.172;12.824;2023-05-29T05:19:50;8.27;;;4.90;;
3771;SDS011;1901;48.172;12.824;2023-05-29T05:22:18;7.47;;;5.97;;
3771;SDS011;1901;48.172;12.824;2023-05-29T05:24:45;6.07;;;5.47;;
3771;SDS011;1901;48.172;12.824;2023-05-29T05:27:12;8.63;;;5.80;;
3771;SDS011;1901;48.172;12.824;2023-05-29T05:29:41;6.00;;;4.90;;
3771;SDS011;1901;48.172;12.824;2023-05-29T05:32:08;7.27;;;5.47;;
3771;SDS011;1901;48.172;12.824;2023-05-29T05:34:35;7.80;;;5.90;;
3771;SDS011;1901;48.172;12.824;2023-05-29T05:37:02;6.77;;;5.37;;
3771;SDS011;1901;48.172;12.824;2023-05-29T05:39:29;8.17;;;5.17;;
3771;SDS011;1901;48.172;12.824;2023-05-29T05:41:56;8.70;;;5.87;;
3771;SDS011;1901;48.172;12.824;2023-05-29T05:44:23;10.63;;;6.57;;
3771;SDS011;1901;48.172;12.824;2023-05-29T05:46:52;7.00;;;5.83;;
3771;SDS011;1901;48.172;12.824;2023-05-29T05:49:19;7.27;;;5.53;;
3771;SDS011;1901;48.172;12.824;2023-05-29T05:51:46;6.20;;;5.60;;
3771;SDS011;1901;48.172;12.824;2023-05-29T05:54:13;5.57;;;4.97;;
3771;SDS011;1901;48.172;12.824;2023-05-29T05:56:40;6.90;;;5.43;;
3771;SDS011;1901;48.172;12.824;2023-05-29T05:59:08;5.37;;;4.70;;
3771;SDS011;1901;48.172;12.824;2023-05-29T06:01:35;7.00;;;5.37;;
3771;SDS011;1901;48.172;12.824;2023-05-29T06:04:03;6.10;;;4.93;;
3771;SDS011;1901;48.172;12.824;2023-05-29T06:06:31;6.40;;;5.80;;
3771;SDS011;1901;48.172;12.824;2023-05-29T06:08:58;5.60;;;4.23;;
3771;SDS011;1901;48.172;12.824;2023-05-29T06:11:25;10.17;;;5.30;;
3771;SDS011;1901;48.172;12.824;2023-05-29T06:13:53;6.67;;;5.60;;
3771;SDS011;1901;48.172;12.824;2023-05-29T06:16:20;7.20;;;5.13;;
3771;SDS011;1901;48.172;12.824;2023-05-29T06:18:48;6.80;;;5.37;;
3771;SDS011;1901;48.172;12.824;2023-05-29T06:21:16;7.07;;;5.30;;
3771;SDS011;1901;48.172;12.824;2023-05-29T06:23:44;6.53;;;5.27;;
3771;SDS011;1901;48.172;12.824;2023-05-29T06:26:11;5.70;;;5.17;;
3771;SDS011;1901;48.172;12.824;2023-05-29T06:28:38;5.67;;;5.17;;
3771;SDS011;1901;48.172;12.824;2023-05-29T06:31:06;7.43;;;6.00;;
3771;SDS011;1901;48.172;12.824;2023-05-29T06:33:33;8.13;;;5.80;;
3771;SDS011;1901;48.172;12.824;2023-05-29T06:36:00;5.57;;;5.07;;
3771;SDS011;1901;48.172;12.824;2023-05-29T06:38:28;8.93;;;5.67;;
3771;SDS011;1901;48.172;12.824;2023-05-29T06:40:55;10.17;;;6.70;;
3771;SDS011;1901;48.172;12.824;2023-05-29T06:43:22;8.90;;;6.30;;
3771;SDS011;1901;48.172;12.824;2023-05-29T06:45:50;10.00;;;6.03;;
3771;SDS011;1901;48.172;12.824;2023-05-29T06:48:17;7.90;;;6.83;;
3771;SDS011;1901;48.172;12.824;2023-05-29T06:50:45;7.17;;;5.50;;
3771;SDS011;1901;48.172;12.824;2023-05-29T06:53:12;10.60;;;5.70;;
3771;SDS011;1901;48.172;12.824;2023-05-29T06:55:40;7.37;;;5.50;;
3771;SDS011;1901;48.172;12.824;2023-05-29T06:58:07;7.10;;;6.33;;
3771;SDS011;1901;48.172;12.824;2023-05-29T07:00:35;7.80;;;5.80;;
3771;SDS011;1901;48.172;12.824;2023-05-29T07:03:02;8.23;;;6.50;;
3771;SDS011;1901;48.172;12.824;2023-05-29T07:05:29;8.30;;;5.70;;
3771;SDS011;1901;48.172;12.824;2023-05-29T07:07:56;13.00;;;6.70;;
3771;SDS011;1901;48.172;12.824;2023-05-29T07:10:23;10.23;;;6.10;;
3771;SDS011;1901;48.172;12.824;2023-05-29T07:12:51;12.63;;;7.67;;
3771;SDS011;1901;48.172;12.824;2023-05-29T07:15:19;8.50;;;6.20;;
3771;SDS011;1901;48.172;12.824;2023-05-29T07:17:46;8.87;;;5.50;;
3771;SDS011;1901;48.172;12.824;2023-05-29T07:20:13;7.27;;;5.90;;
3771;SDS011;1901;48.172;12.824;2023-05-29T07:22:40;8.20;;;6.43;;
3771;SDS011;1901;48.172;12.824;2023-05-29T07:25:08;10.47;;;5.67;;
3771;SDS011;1901;48.172;12.824;2023-05-29T07:27:35;6.20;;;5.40;;
3771;SDS011;1901;48.172;12.824;2023-05-29T07:30:04;7.80;;;5.57;;
3771;SDS011;1901;48.172;12.824;2023-05-29T07:32:31;8.30;;;6.10;;
3771;SDS011;1901;48.172;12.824;2023-05-29T07:34:59;8.40;;;6.93;;
3771;SDS011;1901;48.172;12.824;2023-05-29T07:37:26;7.50;;;6.80;;
3771;SDS011;1901;48.172;12.824;2023-05-29T07:39:54;9.97;;;6.03;;
3771;SDS011;1901;48.172;12.824;2023-05-29T07:42:21;11.97;;;6.00;;
3771;SDS011;1901;48.172;12.824;2023-05-29T07:44:48;6.03;;;5.30;;
3771;SDS011;1901;48.172;12.824;2023-05-29T07:47:17;14.03;;;10.70;;
3771;SDS011;1901;48.172;12.824;2023-05-29T07:49:44;7.40;;;6.33;;
3771;SDS011;1901;48.172;12.824;2023-05-29T07:52:11;6.87;;;5.73;;
3771;SDS011;1901;48.172;12.824;2023-05-29T07:54:38;7.57;;;5.90;;
3771;SDS011;1901;48.172;12.824;2023-05-29T07:57:05;7.00;;;5.73;;
3771;SDS011;1901;48.172;12.824;2023-05-29T07:59:34;6.70;;;5.67;;
3771;SDS011;1901;48.172;12.824;2023-05-29T08:02:02;7.90;;;5.60;;
3771;SDS011;1901;48.172;12.824;2023-05-29T08:04:31;13.90;;;5.90;;
3771;SDS011;1901;48.172;12.824;2023-05-29T08:06:58;11.23;;;6.23;;
3771;SDS011;1901;48.172;12.824;2023-05-29T08:09:26;9.90;;;5.87;;
3771;SDS011;1901;48.172;12.824;2023-05-29T08:11:53;7.60;;;6.20;;
3771;SDS011;1901;48.172;12.824;2023-05-29T08:14:20;9.23;;;6.03;;
3771;SDS011;1901;48.172;12.824;2023-05-29T08:16:47;6.73;;;5.73;;
3771;SDS011;1901;48.172;12.824;2023-05-29T08:19:15;8.77;;;6.20;;
3771;SDS011;1901;48.172;12.824;2023-05-29T08:21:43;8.53;;;5.80;;
3771;SDS011;1901;48.172;12.824;2023-05-29T08:24:10;6.50;;;5.70;;
3771;SDS011;1901;48.172;12.824;2023-05-29T08:26:38;8.60;;;6.40;;
3771;SDS011;1901;48.172;12.824;2023-05-29T08:29:05;7.60;;;6.23;;
3771;SDS011;1901;48.172;12.824;2023-05-29T08:31:32;8.00;;;5.80;;
3771;SDS011;1901;48.172;12.824;2023-05-29T08:33:59;11.73;;;6.20;;
3771;SDS011;1901;48.172;12.824;2023-05-29T08:36:26;10.60;;;6.27;;
3771;SDS011;1901;48.172;12.824;2023-05-29T08:38:55;8.13;;;5.47;;
3771;SDS011;1901;48.172;12.824;2023-05-29T08:41:24;10.70;;;5.50;;
3771;SDS011;1901;48.172;12.824;2023-05-29T08:43:52;7.13;;;5.87;;
3771;SDS011;1901;48.172;12.824;2023-05-29T08:46:20;10.07;;;6.23;;
3771;SDS011;1901;48.172;12.824;2023-05-29T08:48:48;10.17;;;5.67;;
3771;SDS011;1901;48.172;12.824;2023-05-29T08:51:16;8.20;;;6.33;;
3771;SDS011;1901;48.172;12.824;2023-05-29T08:53:46;8.83;;;6.10;;
3771;SDS011;1901;48.172;12.824;2023-05-29T08:56:14;8.30;;;6.60;;
3771;SDS011;1901;48.172;12.824;2023-05-29T08:58:42;6.33;;;5.13;;
3771;SDS011;1901;48.172;12.824;2023-05-29T09:01:10;6.30;;;5.40;;
3771;SDS011;1901;48.172;12.824;2023-05-29T09:03:38;6.83;;;5.20;;
3771;SDS011;1901;48.172;12.824;2023-05-29T09:06:06;10.20;;;6.33;;
3771;SDS011;1901;48.172;12.824;2023-05-29T09:08:34;6.60;;;5.43;;
3771;SDS011;1901;48.172;12.824;2023-05-29T09:11:02;8.23;;;6.20;;
3771;SDS011;1901;48.172;12.824;2023-05-29T09:13:30;6.00;;;5.00;;
3771;SDS011;1901;48.172;12.824;2023-05-29T09:15:58;6.40;;;5.70;;
3771;SDS011;1901;48.172;12.824;2023-05-29T09:18:28;6.00;;;5.10;;
3771;SDS011;1901;48.172;12.824;2023-05-29T09:20:55;10.23;;;5.70;;
3771;SDS011;1901;48.172;12.824;2023-05-29T09:23:22;9.27;;;5.63;;
3771;SDS011;1901;48.172;12.824;2023-05-29T09:25:51;7.17;;;5.63;;
3771;SDS011;1901;48.172;12.824;2023-05-29T09:28:18;7.33;;;6.00;;
3771;SDS011;1901;48.172;12.824;2023-05-29T09:30:47;8.90;;;5.27;;
3771;SDS011;1901;48.172;12.824;2023-05-29T09:33:15;6.13;;;5.37;;
3771;SDS011;1901;48.172;12.824;2023-05-29T09:35:43;11.50;;;5.33;;
3771;SDS011;1901;48.172;12.824;2023-05-29T09:38:11;7.10;;;5.70;;
3771;SDS011;1901;48.172;12.824;2023-05-29T09:40:39;7.60;;;5.03;;
3771;SDS011;1901;48.172;12.824;2023-05-29T09:43:09;10.33;;;5.37;;
3771;SDS011;1901;48.172;12.824;2023-05-29T09:45:37;7.30;;;5.07;;
3771;SDS011;1901;48.172;12.824;2023-05-29T09:48:06;8.27;;;5.10;;
3771;SDS011;1901;48.172;12.824;2023-05-29T09:50:34;6.50;;;4.80;;
3771;SDS011;1901;48.172;12.824;2023-05-29T09:53:01;9.57;;;4.70;;
3771;SDS011;1901;48.172;12.824;2023-05-29T09:55:29;7.67;;;4.47;;
3771;SDS011;1901;48.172;12.824;2023-05-29T09:57:58;4.90;;;3.97;;
3771;SDS011;1901;48.172;12.824;2023-05-29T10:00:26;6.70;;;4.60;;
3771;SDS011;1901;48.172;12.824;2023-05-29T10:02:53;7.10;;;4.33;;
3771;SDS011;1901;48.172;12.824;2023-05-29T10:05:22;6.10;;;5.50;;
3771;SDS011;1901;48.172;12.824;2023-05-29T10:07:49;6.97;;;4.77;;
3771;SDS011;1901;48.172;12.824;2023-05-29T10:10:18;6.17;;;4.90;;
3771;SDS011;1901;48.172;12.824;2023-05-29T10:12:47;4.90;;;4.27;;
3771;SDS011;1901;48.172;12.824;2023-05-29T10:15:15;15.20;;;4.90;;
3771;SDS011;1901;48.172;12.824;2023-05-29T10:17:49;6.33;;;3.80;;
3771;SDS011;1901;48.172;12.824;2023-05-29T10:20:17;5.97;;;3.77;;
3771;SDS011;1901;48.172;12.824;2023-05-29T10:22:49;6.77;;;4.73;;
3771;SDS011;1901;48.172;12.824;2023-05-29T10:25:17;9.90;;;4.87;;
3771;SDS011;1901;48.172;12.824;2023-05-29T10:27:45;5.27;;;4.23;;
3771;SDS011;1901;48.172;12.824;2023-05-29T10:30:14;8.27;;;5.27;;
3771;SDS011;1901;48.172;12.824;2023-05-29T10:32:44;8.53;;;4.60;;
3771;SDS011;1901;48.172;12.824;2023-05-29T10:35:23;7.40;;;5.20;;
3771;SDS011;1901;48.172;12.824;2023-05-29T10:37:54;9.87;;;5.00;;
3771;SDS011;1901;48.172;12.824;2023-05-29T10:40:23;7.40;;;4.70;;
3771;SDS011;1901;48.172;12.824;2023-05-29T10:42:52;6.30;;;4.80;;
3771;SDS011;1901;48.172;12.824;2023-05-29T10:50:55;5.20;;;4.40;;
3771;SDS011;1901;48.172;12.824;2023-05-29T10:53:24;7.43;;;4.83;;
3771;SDS011;1901;48.172;12.824;2023-05-29T10:55:52;7.53;;;4.50;;
3771;SDS011;1901;48.172;12.824;2023-05-29T10:58:20;6.03;;;5.00;;
3771;SDS011;1901;48.172;12.824;2023-05-29T11:00:49;6.60;;;4.57;;
3771;SDS011;1901;48.172;12.824;2023-05-29T11:03:19;10.00;;;4.83;;
3771;SDS011;1901;48.172;12.824;2023-05-29T11:05:55;5.83;;;4.20;;
3771;SDS011;1901;48.172;12.824;2023-05-29T11:08:29;6.80;;;4.90;;
3771;SDS011;1901;48.172;12.824;2023-05-29T11:10:59;8.80;;;4.80;;
3771;SDS011;1901;48.172;12.824;2023-05-29T11:13:29;4.20;;;3.77;;
3771;SDS011;1901;48.172;12.824;2023-05-29T11:16:06;5.07;;;4.10;;
3771;SDS011;1901;48.172;12.824;2023-05-29T11:18:38;10.93;;;4.43;;
3771;SDS011;1901;48.172;12.824;2023-05-29T11:21:07;5.27;;;4.53;;
3771;SDS011;1901;48.172;12.824;2023-05-29T11:23:41;4.10;;;3.70;;
3771;SDS011;1901;48.172;12.824;2023-05-29T11:26:08;5.30;;;4.53;;
3771;SDS011;1901;48.172;12.824;2023-05-29T11:28:36;6.93;;;4.90;;
3771;SDS011;1901;48.172;12.824;2023-05-29T11:31:06;7.00;;;4.03;;
3771;SDS011;1901;48.172;12.824;2023-05-29T11:33:35;5.30;;;4.00;;
3771;SDS011;1901;48.172;12.824;2023-05-29T11:36:05;5.77;;;4.20;;
3771;SDS011;1901;48.172;12.824;2023-05-29T11:38:32;5.20;;;3.50;;
3771;SDS011;1901;48.172;12.824;2023-05-29T11:41:01;6.20;;;4.23;;
3771;SDS011;1901;48.172;12.824;2023-05-29T11:43:29;5.80;;;3.87;;
3771;SDS011;1901;48.172;12.824;2023-05-29T11:45:56;7.27;;;4.73;;
3771;SDS011;1901;48.172;12.824;2023-05-29T11:48:23;7.73;;;4.60;;
3771;SDS011;1901;48.172;12.824;2023-05-29T11:50:50;9.43;;;4.53;;
3771;SDS011;1901;48.172;12.824;2023-05-29T11:53:18;10.60;;;4.53;;
3771;SDS011;1901;48.172;12.824;2023-05-29T11:55:45;8.53;;;5.00;;
3771;SDS011;1901;48.172;12.824;2023-05-29T11:58:13;5.53;;;4.70;;
3771;SDS011;1901;48.172;12.824;2023-05-29T12:00:41;4.90;;;4.40;;
3771;SDS011;1901;48.172;12.824;2023-05-29T12:03:09;8.40;;;4.37;;
3771;SDS011;1901;48.172;12.824;2023-05-29T12:05:44;5.37;;;3.80;;
3771;SDS011;1901;48.172;12.824;2023-05-29T12:08:11;7.50;;;5.43;;
3771;SDS011;1901;48.172;12.824;2023-05-29T12:10:45;5.87;;;4.33;;
3771;SDS011;1901;48.172;12.824;2023-05-29T12:13:14;7.93;;;4.20;;
3771;SDS011;1901;48.172;12.824;2023-05-29T12:15:43;6.63;;;4.33;;
3771;SDS011;1901;48.172;12.824;2023-05-29T12:18:10;5.80;;;4.13;;
3771;SDS011;1901;48.172;12.824;2023-05-29T12:20:37;5.10;;;4.17;;
3771;SDS011;1901;48.172;12.824;2023-05-29T12:23:05;5.03;;;4.30;;
3771;SDS011;1901;48.172;12.824;2023-05-29T12:25:33;6.00;;;4.57;;
3771;SDS011;1901;48.172;12.824;2023-05-29T12:28:02;11.10;;;7.07;;
3771;SDS011;1901;48.172;12.824;2023-05-29T12:30:30;7.20;;;4.83;;
3771;SDS011;1901;48.172;12.824;2023-05-29T12:32:58;5.10;;;3.83;;
3771;SDS011;1901;48.172;12.824;2023-05-29T12:35:27;6.50;;;4.37;;
3771;SDS011;1901;48.172;12.824;2023-05-29T12:37:55;6.80;;;4.53;;
3771;SDS011;1901;48.172;12.824;2023-05-29T12:40:22;4.77;;;4.13;;
3771;SDS011;1901;48.172;12.824;2023-05-29T12:42:53;6.37;;;4.50;;
3771;SDS011;1901;48.172;12.824;2023-05-29T12:45:21;5.53;;;4.00;;
3771;SDS011;1901;48.172;12.824;2023-05-29T12:47:53;6.83;;;4.43;;
3771;SDS011;1901;48.172;12.824;2023-05-29T12:50:22;7.20;;;4.30;;
3771;SDS011;1901;48.172;12.824;2023-05-29T12:52:53;5.90;;;4.10;;
3771;SDS011;1901;48.172;12.824;2023-05-29T12:55:20;5.93;;;4.20;;
3771;SDS011;1901;48.172;12.824;2023-05-29T12:57:47;7.63;;;4.07;;
3771;SDS011;1901;48.172;12.824;2023-05-29T13:00:14;5.77;;;4.00;;
3771;SDS011;1901;48.172;12.824;2023-05-29T13:02:43;4.93;;;3.90;;
3771;SDS011;1901;48.172;12.824;2023-05-29T13:05:12;5.90;;;4.07;;
3771;SDS011;1901;48.172;12.824;2023-05-29T13:07:40;9.03;;;4.90;;
3771;SDS011;1901;48.172;12.824;2023-05-29T13:10:08;6.50;;;4.30;;
3771;SDS011;1901;48.172;12.824;2023-05-29T13:12:35;6.40;;;4.90;;
3771;SDS011;1901;48.172;12.824;2023-05-29T13:15:02;5.87;;;3.80;;
3771;SDS011;1901;48.172;12.824;2023-05-29T13:17:29;4.70;;;3.87;;
3771;SDS011;1901;48.172;12.824;2023-05-29T13:19:56;8.40;;;4.90;;
3771;SDS011;1901;48.172;12.824;2023-05-29T13:22:25;8.87;;;4.30;;
3771;SDS011;1901;48.172;12.824;2023-05-29T13:24:56;6.27;;;4.70;;
3771;SDS011;1901;48.172;12.824;2023-05-29T13:27:23;4.73;;;3.57;;
3771;SDS011;1901;48.172;12.824;2023-05-29T13:29:50;8.27;;;6.00;;
3771;SDS011;1901;48.172;12.824;2023-05-29T13:32:18;5.00;;;3.93;;
3771;SDS011;1901;48.172;12.824;2023-05-29T13:34:45;6.20;;;4.10;;
3771;SDS011;1901;48.172;12.824;2023-05-29T13:37:12;4.40;;;3.70;;
3771;SDS011;1901;48.172;12.824;2023-05-29T13:39:40;5.30;;;4.17;;
3771;SDS011;1901;48.172;12.824;2023-05-29T13:42:08;5.23;;;3.90;;
3771;SDS011;1901;48.172;12.824;2023-05-29T13:44:36;6.57;;;4.43;;
3771;SDS011;1901;48.172;12.824;2023-05-29T13:47:04;4.50;;;3.93;;
3771;SDS011;1901;48.172;12.824;2023-05-29T13:49:31;5.70;;;4.77;;
3771;SDS011;1901;48.172;12.824;2023-05-29T13:51:58;9.03;;;5.90;;
3771;SDS011;1901;48.172;12.824;2023-05-29T13:54:25;4.83;;;3.63;;
3771;SDS011;1901;48.172;12.824;2023-05-29T13:56:56;4.03;;;3.53;;
3771;SDS011;1901;48.172;12.824;2023-05-29T13:59:23;5.60;;;4.03;;
3771;SDS011;1901;48.172;12.824;2023-05-29T14:01:50;5.43;;;3.93;;
3771;SDS011;1901;48.172;12.824;2023-05-29T14:04:17;4.50;;;3.80;;
3771;SDS011;1901;48.172;12.824;2023-05-29T14:06:44;5.53;;;4.10;;
3771;SDS011;1901;48.172;12.824;2023-05-29T14:09:12;4.97;;;4.10;;
3771;SDS011;1901;48.172;12.824;2023-05-29T14:11:39;4.60;;;3.80;;
3771;SDS011;1901;48.172;12.824;2023-05-29T14:14:07;7.10;;;3.80;;
3771;SDS011;1901;48.172;12.824;2023-05-29T14:16:35;8.83;;;4.20;;
3771;SDS011;1901;48.172;12.824;2023-05-29T14:19:02;5.00;;;4.30;;
3771;SDS011;1901;48.172;12.824;2023-05-29T14:21:29;6.90;;;4.53;;
3771;SDS011;1901;48.172;12.824;2023-05-29T14:23:56;5.10;;;4.60;;
3771;SDS011;1901;48.172;12.824;2023-05-29T14:26:23;5.30;;;4.00;;
3771;SDS011;1901;48.172;12.824;2023-05-29T14:28:51;7.10;;;4.60;;
3771;SDS011;1901;48.172;12.824;2023-05-29T14:31:19;7.10;;;4.23;;
3771;SDS011;1901;48.172;12.824;2023-05-29T14:33:46;6.00;;;4.90;;
3771;SDS011;1901;48.172;12.824;2023-05-29T14:36:13;5.47;;;4.33;;
3771;SDS011;1901;48.172;12.824;2023-05-29T14:38:40;4.77;;;4.03;;
3771;SDS011;1901;48.172;12.824;2023-05-29T14:41:09;6.10;;;3.77;;
3771;SDS011;1901;48.172;12.824;2023-05-29T14:43:37;6.53;;;4.60;;
3771;SDS011;1901;48.172;12.824;2023-05-29T14:46:04;4.97;;;3.73;;
3771;SDS011;1901;48.172;12.824;2023-05-29T14:48:33;7.77;;;4.70;;
3771;SDS011;1901;48.172;12.824;2023-05-29T14:51:00;4.50;;;3.80;;
3771;SDS011;1901;48.172;12.824;2023-05-29T14:53:27;11.13;;;4.17;;
3771;SDS011;1901;48.172;12.824;2023-05-29T14:55:56;7.10;;;4.60;;
3771;SDS011;1901;48.172;12.824;2023-05-29T14:58:23;5.97;;;4.10;;
3771;SDS011;1901;48.172;12.824;2023-05-29T15:00:50;5.93;;;4.63;;
3771;SDS011;1901;48.172;12.824;2023-05-29T15:03:17;7.13;;;4.00;;
3771;SDS011;1901;48.172;12.824;2023-05-29T15:05:46;5.53;;;4.10;;
3771;SDS011;1901;48.172;12.824;2023-05-29T15:08:14;6.03;;;4.30;;
3771;SDS011;1901;48.172;12.824;2023-05-29T15:10:41;6.00;;;4.40;;